createdAt,value
2022-10-21T00:02:09.767Z,98673.94
2022-10-21T00:05:13.442Z,98682.69
2022-10-21T00:08:15.719Z,98682.28
2022-10-21T00:11:17.749Z,98671.47
2022-10-21T00:14:20.060Z,98681.47
2022-10-21T00:17:22.849Z,98681.88
2022-10-21T00:20:24.707Z,98682.50
2022-10-21T00:23:26.748Z,98675.22
2022-10-21T00:26:28.778Z,98677.72
2022-10-21T00:29:30.757Z,98683.34
2022-10-21T00:32:33.172Z,98688.25
2022-10-21T00:35:34.987Z,98689.59
2022-10-21T00:38:36.996Z,98678.47
2022-10-21T00:41:39.136Z,98677.72
2022-10-21T00:44:41.732Z,98668.38
2022-10-21T00:48:06.418Z,98674.50
2022-10-21T00:51:11.878Z,98677.50
2022-10-21T00:54:14.987Z,98658.75
2022-10-21T00:57:17.403Z,98651.22
2022-10-21T01:00:20.231Z,98640.78
2022-10-21T01:03:23.965Z,98637.69
2022-10-21T01:06:27.206Z,98638.94
2022-10-21T01:09:29.803Z,98627.47
2022-10-21T01:12:44.695Z,98634.72
2022-10-21T01:15:49.505Z,98624.94
2022-10-21T01:19:18.768Z,98640.75
2022-10-21T01:22:54.569Z,98640.31
2022-10-21T01:25:56.265Z,98625.13
2022-10-21T01:29:09.700Z,98614.81
2022-10-21T01:32:13.910Z,98618.44
2022-10-21T01:35:37.856Z,98621.00
2022-10-21T01:38:49.977Z,98627.03
2022-10-21T01:41:59.617Z,98628.69
2022-10-21T01:45:31.166Z,98626.91
2022-10-21T01:48:37.316Z,98619.75
2022-10-21T01:51:39.998Z,98608.59
2022-10-21T01:54:45.257Z,98616.78
2022-10-21T01:57:52.377Z,98615.13
2022-10-21T02:00:55.833Z,98620.34
2022-10-21T02:04:00.144Z,98622.22
2022-10-21T02:07:02.678Z,98607.94
2022-10-21T02:10:04.978Z,98600.22
2022-10-21T02:13:10.251Z,98594.59
2022-10-21T02:16:16.667Z,98590.75
2022-10-21T02:19:19.987Z,98599.31
2022-10-21T02:22:22.603Z,98609.72
2022-10-21T02:25:27.301Z,98607.44
2022-10-21T02:28:29.184Z,98601.41
2022-10-21T02:31:55.157Z,98580.38
2022-10-21T02:35:35.265Z,98584.00
2022-10-21T02:38:50.710Z,98596.00
2022-10-21T02:41:54.483Z,98589.13
2022-10-21T02:44:56.169Z,98588.91
2022-10-21T02:47:58.000Z,98583.50
2022-10-21T02:51:01.170Z,98576.41
2022-10-21T02:54:03.112Z,98568.81
2022-10-21T02:57:05.545Z,98573.75
2022-10-21T03:00:08.159Z,98564.78
2022-10-21T03:03:09.898Z,98565.59
2022-10-21T03:06:12.122Z,98564.25
2022-10-21T03:09:13.905Z,98565.41
2022-10-21T03:12:15.791Z,98567.06
2022-10-21T03:15:17.705Z,98563.31
2022-10-21T03:18:19.468Z,98561.84
2022-10-21T03:21:21.765Z,98570.38
2022-10-21T03:24:28.931Z,98566.44
2022-10-21T03:30:38.574Z,98562.47
2022-10-21T03:33:41.203Z,98565.59
2022-10-21T03:36:43.004Z,98568.50
2022-10-21T03:39:45.087Z,98565.81
2022-10-21T03:42:47.707Z,98563.41
2022-10-21T03:45:49.457Z,98557.25
2022-10-21T03:48:51.668Z,98555.19
2022-10-21T03:51:53.402Z,98561.63
2022-10-21T03:54:55.323Z,98554.97
2022-10-21T03:57:57.460Z,98567.47
2022-10-21T04:00:59.201Z,98552.28
2022-10-21T04:04:01.970Z,98555.16
2022-10-21T04:07:04.194Z,98568.28
2022-10-21T04:10:07.060Z,98569.03
2022-10-21T04:13:09.698Z,98558.59
2022-10-21T04:16:15.562Z,98553.13
2022-10-21T04:19:18.554Z,98544.78
2022-10-21T04:22:20.371Z,98535.38
2022-10-21T04:25:23.305Z,98537.50
2022-10-21T04:28:25.276Z,98546.84
2022-10-21T04:31:31.326Z,98550.41
2022-10-21T04:34:34.186Z,98543.53
2022-10-21T04:37:40.254Z,98541.22
2022-10-21T04:40:42.179Z,98540.72
2022-10-21T04:43:44.601Z,98540.59
2022-10-21T04:46:46.774Z,98547.25
2022-10-21T04:49:48.719Z,98544.66
2022-10-21T04:52:51.673Z,98544.34
2022-10-21T04:55:54.398Z,98536.22
2022-10-21T04:58:56.853Z,98536.00
2022-10-21T05:01:59.185Z,98542.25
2022-10-21T05:05:01.659Z,98548.69
2022-10-21T05:08:09.285Z,98540.78
2022-10-21T05:11:16.174Z,98540.78
2022-10-21T05:14:21.671Z,98547.03
2022-10-21T05:17:25.339Z,98545.59
2022-10-21T05:20:27.242Z,98555.31
2022-10-21T05:23:30.094Z,98562.06
2022-10-21T05:26:32.513Z,98558.50
2022-10-21T05:29:34.466Z,98553.19
2022-10-21T05:32:36.903Z,98560.38
2022-10-21T05:35:40.168Z,98561.91
2022-10-21T05:38:42.926Z,98554.91
2022-10-21T05:41:47.799Z,98550.97
2022-10-21T05:44:50.791Z,98547.75
2022-10-21T05:47:52.711Z,98551.25
2022-10-21T05:50:56.233Z,98558.84
2022-10-21T05:53:58.510Z,98560.31
2022-10-21T05:57:02.806Z,98568.91
2022-10-21T06:00:06.724Z,98567.34
2022-10-21T06:03:09.019Z,98557.38
2022-10-21T06:06:11.176Z,98557.22
2022-10-21T06:09:13.169Z,98553.00
2022-10-21T06:12:15.291Z,98554.91
2022-10-21T06:15:17.443Z,98555.66
2022-10-21T06:18:19.818Z,98553.91
2022-10-21T06:21:22.298Z,98564.50
2022-10-21T06:24:24.839Z,98567.25
2022-10-21T06:27:26.763Z,98561.47
2022-10-21T06:30:28.778Z,98570.97
2022-10-21T06:33:31.015Z,98567.41
2022-10-21T06:36:33.264Z,98577.88
2022-10-21T06:39:35.064Z,98585.38
2022-10-21T06:42:37.111Z,98582.44
2022-10-21T06:45:39.339Z,98572.59
2022-10-21T06:48:41.769Z,98568.41
2022-10-21T06:51:43.777Z,98564.38
2022-10-21T06:54:45.982Z,98563.88
2022-10-21T06:57:48.218Z,98559.97
2022-10-21T07:00:50.893Z,98574.31
2022-10-21T07:03:53.386Z,98572.13
2022-10-21T07:06:55.329Z,98574.47
2022-10-21T07:09:58.181Z,98570.66
2022-10-21T07:13:00.973Z,98562.28
2022-10-21T07:16:05.886Z,98563.69
2022-10-21T07:19:07.763Z,98557.88
2022-10-21T07:22:10.462Z,98562.66
2022-10-21T07:25:13.981Z,98559.81
2022-10-21T07:28:15.954Z,98549.38
2022-10-21T07:31:19.493Z,98553.16
2022-10-21T07:34:21.508Z,98549.13
2022-10-21T07:37:23.495Z,98545.72
2022-10-21T07:40:25.654Z,98540.97
2022-10-21T07:43:27.849Z,98547.00
2022-10-21T07:46:30.641Z,98553.78
2022-10-21T07:49:32.484Z,98553.78
2022-10-21T07:52:37.101Z,98557.44
2022-10-21T07:55:42.173Z,98548.66
2022-10-21T07:58:44.498Z,98561.25
2022-10-21T08:04:55.520Z,98552.94
2022-10-21T08:07:59.049Z,98550.28
2022-10-21T08:11:01.319Z,98542.91
2022-10-21T08:14:06.868Z,98544.78
2022-10-21T08:17:08.791Z,98543.72
2022-10-21T08:20:11.199Z,98537.97
2022-10-21T08:23:15.668Z,98534.13
2022-10-21T08:26:17.627Z,98521.34
2022-10-21T08:29:19.721Z,98526.03
2022-10-21T08:32:21.659Z,98507.59
2022-10-21T08:35:23.620Z,98503.13
2022-10-21T08:38:25.700Z,98504.03
2022-10-21T08:41:30.530Z,98507.00
2022-10-21T08:44:53.986Z,98508.19
2022-10-21T08:47:58.965Z,98503.53
2022-10-21T08:51:01.542Z,98496.75
2022-10-21T08:54:13.978Z,98500.28
2022-10-21T08:57:16.318Z,98491.91
2022-10-21T09:00:24.155Z,98488.19
2022-10-21T09:03:40.982Z,98469.81
2022-10-21T09:06:48.679Z,98457.97
2022-10-21T09:09:57.397Z,98458.28
2022-10-21T09:13:17.856Z,98466.63
2022-10-21T09:16:24.147Z,98469.13
2022-10-21T09:20:04.022Z,98460.09
2022-10-21T09:23:43.600Z,98451.97
2022-10-21T09:26:48.379Z,98464.66
2022-10-21T09:29:55.113Z,98448.06
2022-10-21T09:32:59.420Z,98450.06
2022-10-21T09:36:12.110Z,98451.91
2022-10-21T09:39:24.839Z,98449.38
2022-10-21T09:42:46.381Z,98450.56
2022-10-21T09:45:48.910Z,98437.06
2022-10-21T09:52:22.973Z,98423.94
2022-10-21T09:55:25.487Z,98426.41
2022-10-21T09:58:45.274Z,98410.41
2022-10-21T10:01:48.306Z,98409.41
2022-10-21T10:04:50.568Z,98410.25
2022-10-21T10:07:52.532Z,98401.50
2022-10-21T10:11:09.563Z,98420.69
2022-10-21T10:14:33.410Z,98414.94
2022-10-21T10:17:38.639Z,98411.31
2022-10-21T10:20:40.550Z,98415.72
2022-10-21T10:23:50.865Z,98413.06
2022-10-21T10:26:52.622Z,98422.81
2022-10-21T10:29:55.941Z,98418.22
2022-10-21T10:32:58.023Z,98412.31
2022-10-21T10:36:03.334Z,98408.63
2022-10-21T10:39:09.562Z,98397.25
2022-10-21T10:42:19.262Z,98379.47
2022-10-21T10:45:22.810Z,98379.69
2022-10-21T10:48:28.471Z,98382.28
2022-10-21T10:51:32.638Z,98369.63
2022-10-21T10:54:35.050Z,98363.25
2022-10-21T10:57:45.896Z,98342.19
2022-10-21T11:00:56.317Z,98337.22
2022-10-21T11:04:05.420Z,98325.50
2022-10-21T11:07:20.835Z,98316.59
2022-10-21T11:10:31.074Z,98301.63
2022-10-21T11:13:39.984Z,98307.16
2022-10-21T11:17:01.391Z,98310.44
2022-10-21T11:20:08.461Z,98315.78
2022-10-21T11:23:22.308Z,98312.28
2022-10-21T11:26:39.373Z,98307.94
2022-10-21T11:30:05.093Z,98304.97
2022-10-21T11:33:25.819Z,98301.97
2022-10-21T11:36:46.315Z,98307.28
2022-10-21T11:40:16.128Z,98300.16
2022-10-21T11:44:06.101Z,98304.44
2022-10-21T11:47:13.689Z,98295.75
2022-10-21T11:50:27.884Z,98289.38
2022-10-21T11:53:57.082Z,98283.56
2022-10-21T11:57:50.349Z,98283.38
2022-10-21T12:01:10.491Z,98261.25
2022-10-21T12:04:25.212Z,98263.59
2022-10-21T12:07:45.213Z,98255.44
2022-10-21T12:11:24.357Z,98257.91
2022-10-21T12:14:48.889Z,98250.38
2022-10-21T12:17:50.865Z,98235.44
2022-10-21T12:20:54.343Z,98228.69
2022-10-21T12:24:07.064Z,98233.63
2022-10-21T12:27:16.781Z,98231.16
2022-10-21T12:30:54.034Z,98236.31
2022-10-21T12:33:58.737Z,98234.75
2022-10-21T12:37:02.285Z,98218.56
2022-10-21T12:40:10.695Z,98225.41
2022-10-21T12:43:28.796Z,98231.63
2022-10-21T12:46:40.156Z,98220.69
2022-10-21T12:49:43.848Z,98218.19
2022-10-21T12:52:46.485Z,98220.19
2022-10-21T12:55:53.806Z,98198.81
2022-10-21T12:58:59.456Z,98209.66
2022-10-21T13:02:08.131Z,98200.88
2022-10-21T13:05:10.011Z,98194.78
2022-10-21T13:08:14.737Z,98200.50
2022-10-21T13:11:37.590Z,98196.81
2022-10-21T13:14:58.580Z,98195.50
2022-10-21T13:18:00.467Z,98202.78
2022-10-21T13:21:02.315Z,98194.19
2022-10-21T13:24:16.018Z,98196.16
2022-10-21T13:27:32.306Z,98195.84
2022-10-21T13:30:36.791Z,98186.56
2022-10-21T13:33:39.456Z,98182.13
2022-10-21T13:36:43.907Z,98175.19
2022-10-21T13:39:49.296Z,98177.47
2022-10-21T13:43:01.234Z,98171.19
2022-10-21T13:46:12.311Z,98156.09
2022-10-21T13:49:32.985Z,98152.78
2022-10-21T13:52:34.792Z,98158.09
2022-10-21T13:55:37.070Z,98163.31
2022-10-21T13:58:39.658Z,98165.00
2022-10-21T14:01:47.704Z,98161.19
2022-10-21T14:04:49.506Z,98158.88
2022-10-21T14:07:51.238Z,98155.44
2022-10-21T14:10:53.867Z,98159.09
2022-10-21T14:14:03.048Z,98169.28
2022-10-21T14:17:09.734Z,98175.88
2022-10-21T14:20:20.723Z,98176.78
2022-10-21T14:23:24.215Z,98175.66
2022-10-21T14:26:30.990Z,98179.53
2022-10-21T14:29:34.984Z,98176.59
2022-10-21T14:32:37.410Z,98168.66
2022-10-21T14:35:39.392Z,98172.63
2022-10-21T14:38:43.141Z,98163.38
2022-10-21T14:41:46.210Z,98169.47
2022-10-21T14:44:51.212Z,98169.03
2022-10-21T14:48:02.366Z,98156.03
2022-10-21T14:51:09.809Z,98155.56
2022-10-21T14:54:29.580Z,98157.44
2022-10-21T14:58:06.882Z,98176.53
2022-10-21T15:01:12.245Z,98160.75
2022-10-21T15:04:40.642Z,98170.69
2022-10-21T15:07:42.479Z,98167.63
2022-10-21T15:10:44.362Z,98165.59
2022-10-21T15:14:00.719Z,98166.50
2022-10-21T15:17:04.565Z,98159.59
2022-10-21T15:20:15.821Z,98159.91
2022-10-21T15:23:20.265Z,98166.28
2022-10-21T15:26:31.873Z,98172.38
2022-10-21T15:29:42.380Z,98173.28
2022-10-21T15:32:45.624Z,98164.78
2022-10-21T15:36:08.744Z,98175.91
2022-10-21T15:39:11.200Z,98187.78
2022-10-21T15:42:16.239Z,98185.09
2022-10-21T15:45:21.478Z,98178.31
2022-10-21T15:48:23.515Z,98170.59
2022-10-21T15:51:25.365Z,98177.56
2022-10-21T15:54:27.346Z,98181.72
2022-10-21T15:57:29.340Z,98187.19
2022-10-21T16:00:33.196Z,98195.50
2022-10-21T16:03:37.311Z,98186.44
2022-10-21T16:06:40.046Z,98184.19
2022-10-21T16:09:41.846Z,98178.50
2022-10-21T16:12:44.424Z,98188.47
2022-10-21T16:15:46.439Z,98185.00
2022-10-21T16:18:48.998Z,98189.97
2022-10-21T16:21:51.271Z,98183.44
2022-10-21T16:24:53.168Z,98185.38
2022-10-21T16:27:56.482Z,98186.22
2022-10-21T16:30:59.785Z,98181.03
2022-10-21T16:34:01.626Z,98177.50
2022-10-21T16:37:11.234Z,98185.38
2022-10-21T16:40:15.680Z,98191.94
2022-10-21T16:43:18.139Z,98194.25
2022-10-21T16:46:36.476Z,98197.31
2022-10-21T16:49:38.859Z,98192.75
2022-10-21T16:52:42.863Z,98199.66
2022-10-21T16:55:44.724Z,98205.06
2022-10-21T16:58:46.804Z,98209.63
2022-10-21T17:01:48.748Z,98206.66
2022-10-21T17:04:51.182Z,98203.63
2022-10-21T17:07:54.197Z,98212.34
2022-10-21T17:10:56.223Z,98209.94
2022-10-21T17:13:58.599Z,98207.59
2022-10-21T17:17:00.614Z,98202.50
2022-10-21T17:20:02.828Z,98210.22
2022-10-21T17:23:05.095Z,98208.28
2022-10-21T17:26:07.246Z,98203.03
2022-10-21T17:29:11.044Z,98208.44
2022-10-21T17:32:13.282Z,98206.34
2022-10-21T17:35:21.618Z,98203.09
2022-10-21T17:38:23.627Z,98208.22
2022-10-21T17:41:25.985Z,98216.53
2022-10-21T17:44:28.221Z,98195.22
2022-10-21T17:47:30.296Z,98191.72
2022-10-21T17:50:32.813Z,98195.16
2022-10-21T17:53:34.755Z,98193.03
2022-10-21T17:56:37.064Z,98191.94
2022-10-21T17:59:39.403Z,98184.56
2022-10-21T18:02:41.582Z,98187.31
2022-10-21T18:05:44.884Z,98179.38
2022-10-21T18:08:47.335Z,98181.19
2022-10-21T18:11:49.522Z,98172.91
2022-10-21T18:14:51.814Z,98171.81
2022-10-21T18:17:54.875Z,98175.13
2022-10-21T18:21:05.392Z,98180.66
2022-10-21T18:24:12.348Z,98179.28
2022-10-21T18:27:14.915Z,98175.78
2022-10-21T18:30:17.540Z,98172.41
2022-10-21T18:33:20.375Z,98165.50
2022-10-21T18:36:23.304Z,98151.38
2022-10-21T18:39:25.951Z,98150.38
2022-10-21T18:42:28.557Z,98147.41
2022-10-21T18:45:30.745Z,98148.38
2022-10-21T18:48:32.562Z,98155.28
2022-10-21T18:51:34.814Z,98149.56
2022-10-21T18:54:36.993Z,98142.81
2022-10-21T18:57:39.662Z,98152.50
2022-10-21T19:00:42.110Z,98143.88
2022-10-21T19:03:54.626Z,98142.22
2022-10-21T19:06:56.844Z,98138.22
2022-10-21T19:09:59.107Z,98136.22
2022-10-21T19:13:01.126Z,98136.22
2022-10-21T19:16:03.225Z,98139.53
2022-10-21T19:19:05.327Z,98119.09
2022-10-21T19:22:07.622Z,98126.38
2022-10-21T19:25:10.384Z,98125.69
2022-10-21T19:28:12.394Z,98132.16
2022-10-21T19:31:15.010Z,98128.56
2022-10-21T19:34:21.179Z,98135.22
2022-10-21T19:37:24.136Z,98128.94
2022-10-21T19:40:26.522Z,98126.75
2022-10-21T19:43:30.478Z,98124.44
2022-10-21T19:46:34.522Z,98118.72
2022-10-21T19:49:37.118Z,98121.53
2022-10-21T19:52:40.348Z,98125.97
2022-10-21T19:55:42.887Z,98123.75
2022-10-21T19:58:48.579Z,98135.66
2022-10-21T20:01:50.877Z,98125.56
2022-10-21T20:04:53.164Z,98146.28
2022-10-21T20:07:55.190Z,98158.97
2022-10-21T20:11:02.318Z,98151.94
2022-10-21T20:14:04.703Z,98144.88
2022-10-21T20:17:07.744Z,98151.34
2022-10-21T20:20:10.628Z,98133.84
2022-10-21T20:23:19.348Z,98123.81
2022-10-21T20:26:22.984Z,98135.25
2022-10-21T20:29:25.662Z,98135.84
2022-10-21T20:32:28.756Z,98130.59
2022-10-21T20:35:31.917Z,98127.13
2022-10-21T20:38:34.485Z,98127.88
2022-10-21T20:41:38.368Z,98122.03
2022-10-21T20:44:40.456Z,98122.34
2022-10-21T20:47:42.767Z,98117.66
2022-10-21T20:50:45.543Z,98127.91
2022-10-21T20:53:49.425Z,98126.66
2022-10-21T20:56:52.064Z,98120.16
2022-10-21T20:59:53.958Z,98115.72
2022-10-21T21:06:02.124Z,98119.00
2022-10-21T21:12:26.439Z,98109.78
2022-10-21T21:15:28.693Z,98121.41
2022-10-21T21:18:30.688Z,98131.31
2022-10-21T21:21:34.830Z,98126.75
2022-10-21T21:24:37.303Z,98113.25
2022-10-21T21:27:39.209Z,98105.97
2022-10-21T21:30:41.905Z,98105.53
2022-10-21T21:33:45.512Z,98107.34
2022-10-21T21:36:47.549Z,98108.44
2022-10-21T21:39:50.001Z,98105.72
2022-10-21T21:42:51.784Z,98100.78
2022-10-21T21:45:53.593Z,98107.91
2022-10-21T21:49:00.944Z,98102.13
2022-10-21T21:52:04.749Z,98105.72
2022-10-21T21:55:07.165Z,98115.16
2022-10-21T21:58:10.749Z,98105.34
2022-10-21T22:01:18.613Z,98113.22
2022-10-21T22:04:20.697Z,98118.91
2022-10-21T22:07:22.455Z,98119.59
2022-10-21T22:10:24.952Z,98122.91
2022-10-21T22:13:27.176Z,98120.97
2022-10-21T22:16:30.519Z,98108.03
2022-10-21T22:19:33.122Z,98096.72
2022-10-21T22:22:35.642Z,98097.81
2022-10-21T22:25:38.309Z,98097.44
2022-10-21T22:28:40.937Z,98079.38
2022-10-21T22:31:42.959Z,98082.41
2022-10-21T22:34:45.774Z,98082.28
2022-10-21T22:37:47.595Z,98079.78
2022-10-21T22:40:57.310Z,98079.09
2022-10-21T22:43:59.256Z,98074.69
2022-10-21T22:47:01.478Z,98068.91
2022-10-21T22:50:03.521Z,98068.63
2022-10-21T22:53:06.725Z,98061.31
2022-10-21T22:56:08.802Z,98058.00
2022-10-21T22:59:10.625Z,98056.50
2022-10-21T23:02:13.048Z,98050.72
2022-10-21T23:05:15.095Z,98056.22
2022-10-21T23:08:17.859Z,98054.97
2022-10-21T23:11:19.660Z,98047.66
2022-10-21T23:14:21.352Z,98052.84
2022-10-21T23:17:25.720Z,98057.94
2022-10-21T23:20:27.608Z,98059.72
2022-10-21T23:23:30.190Z,98060.41
2022-10-21T23:26:32.280Z,98057.81
2022-10-21T23:29:34.258Z,98053.28
2022-10-21T23:32:36.260Z,98051.47
2022-10-21T23:35:38.057Z,98063.25
2022-10-21T23:38:39.937Z,98063.50
2022-10-21T23:41:41.828Z,98054.72
2022-10-21T23:44:43.895Z,98061.31
2022-10-21T23:47:46.438Z,98055.00
2022-10-21T23:50:48.466Z,98056.50
2022-10-21T23:53:50.210Z,98059.50
2022-10-21T23:56:52.313Z,98060.34
2022-10-21T23:59:54.275Z,98064.03
